sensor_id;sensor_type;location;lat;lon;timestamp;P1;durP1;ratioP1;P2;durP2;ratioP2
39486;SDS011;25173;50.430;18.926;2022-07-06T00:02:08;23.50;;;18.70;;
39486;SDS011;25173;50.430;18.926;2022-07-06T00:05:08;22.83;;;17.88;;
39486;SDS011;25173;50.430;18.926;2022-07-06T00:08:09;23.90;;;18.75;;
39486;SDS011;25173;50.430;18.926;2022-07-06T00:11:10;28.40;;;18.95;;
39486;SDS011;25173;50.430;18.926;2022-07-06T00:14:11;25.20;;;18.95;;
39486;SDS011;25173;50.430;18.926;2022-07-06T00:17:12;26.10;;;18.58;;
39486;SDS011;25173;50.430;18.926;2022-07-06T00:20:12;27.95;;;18.77;;
39486;SDS011;25173;50.430;18.926;2022-07-06T00:23:13;24.67;;;19.80;;
39486;SDS011;25173;50.430;18.926;2022-07-06T00:26:14;25.23;;;20.33;;
39486;SDS011;25173;50.430;18.926;2022-07-06T00:29:15;23.20;;;17.35;;
39486;SDS011;25173;50.430;18.926;2022-07-06T00:32:15;24.00;;;19.58;;
39486;SDS011;25173;50.430;18.926;2022-07-06T00:35:16;26.50;;;19.30;;
39486;SDS011;25173;50.430;18.926;2022-07-06T00:38:17;23.38;;;17.67;;
39486;SDS011;25173;50.430;18.926;2022-07-06T00:41:17;24.13;;;17.63;;
39486;SDS011;25173;50.430;18.926;2022-07-06T00:52:37;14.48;;;12.45;;
39486;SDS011;25173;50.430;18.926;2022-07-06T00:55:39;20.05;;;14.30;;
39486;SDS011;25173;50.430;18.926;2022-07-06T00:58:40;16.60;;;12.23;;
39486;SDS011;25173;50.430;18.926;2022-07-06T01:01:40;18.33;;;11.45;;
39486;SDS011;25173;50.430;18.926;2022-07-06T01:04:41;18.10;;;11.90;;
39486;SDS011;25173;50.430;18.926;2022-07-06T01:07:43;15.25;;;12.02;;
39486;SDS011;25173;50.430;18.926;2022-07-06T01:10:45;14.48;;;11.63;;
39486;SDS011;25173;50.430;18.926;2022-07-06T01:13:47;16.92;;;12.32;;
39486;SDS011;25173;50.430;18.926;2022-07-06T01:16:48;17.20;;;12.27;;
39486;SDS011;25173;50.430;18.926;2022-07-06T01:19:49;16.35;;;11.35;;
39486;SDS011;25173;50.430;18.926;2022-07-06T01:22:50;14.15;;;11.43;;
39486;SDS011;25173;50.430;18.926;2022-07-06T01:25:54;14.70;;;11.95;;
39486;SDS011;25173;50.430;18.926;2022-07-06T01:28:55;14.35;;;12.50;;
39486;SDS011;25173;50.430;18.926;2022-07-06T01:31:56;16.83;;;11.65;;
39486;SDS011;25173;50.430;18.926;2022-07-06T01:34:57;16.73;;;12.48;;
39486;SDS011;25173;50.430;18.926;2022-07-06T01:37:58;26.20;;;11.68;;
39486;SDS011;25173;50.430;18.926;2022-07-06T01:40:58;15.40;;;12.20;;
39486;SDS011;25173;50.430;18.926;2022-07-06T01:43:59;13.23;;;10.95;;
39486;SDS011;25173;50.430;18.926;2022-07-06T01:47:00;13.05;;;11.27;;
39486;SDS011;25173;50.430;18.926;2022-07-06T01:50:05;15.95;;;11.27;;
39486;SDS011;25173;50.430;18.926;2022-07-06T01:53:11;14.57;;;11.52;;
39486;SDS011;25173;50.430;18.926;2022-07-06T01:56:12;12.73;;;10.48;;
39486;SDS011;25173;50.430;18.926;2022-07-06T01:59:14;15.55;;;12.20;;
39486;SDS011;25173;50.430;18.926;2022-07-06T02:02:14;12.68;;;11.38;;
39486;SDS011;25173;50.430;18.926;2022-07-06T02:05:18;17.52;;;11.35;;
39486;SDS011;25173;50.430;18.926;2022-07-06T02:08:19;13.30;;;11.90;;
39486;SDS011;25173;50.430;18.926;2022-07-06T02:11:19;15.38;;;10.52;;
39486;SDS011;25173;50.430;18.926;2022-07-06T02:14:20;18.27;;;11.98;;
39486;SDS011;25173;50.430;18.926;2022-07-06T02:17:22;12.23;;;10.98;;
39486;SDS011;25173;50.430;18.926;2022-07-06T02:20:24;24.70;;;12.02;;
39486;SDS011;25173;50.430;18.926;2022-07-06T02:23:24;17.83;;;11.85;;
39486;SDS011;25173;50.430;18.926;2022-07-06T02:26:27;15.23;;;11.82;;
39486;SDS011;25173;50.430;18.926;2022-07-06T02:29:27;17.23;;;11.57;;
39486;SDS011;25173;50.430;18.926;2022-07-06T02:32:29;14.88;;;12.25;;
39486;SDS011;25173;50.430;18.926;2022-07-06T02:35:29;20.08;;;12.27;;
39486;SDS011;25173;50.430;18.926;2022-07-06T02:38:30;14.38;;;11.90;;
39486;SDS011;25173;50.430;18.926;2022-07-06T02:41:32;16.10;;;11.73;;
39486;SDS011;25173;50.430;18.926;2022-07-06T02:44:33;13.32;;;11.35;;
39486;SDS011;25173;50.430;18.926;2022-07-06T02:47:33;16.25;;;11.30;;
39486;SDS011;25173;50.430;18.926;2022-07-06T02:50:34;14.40;;;12.13;;
39486;SDS011;25173;50.430;18.926;2022-07-06T02:53:35;13.20;;;11.20;;
39486;SDS011;25173;50.430;18.926;2022-07-06T02:56:36;14.07;;;11.32;;
39486;SDS011;25173;50.430;18.926;2022-07-06T02:59:36;16.40;;;11.48;;
39486;SDS011;25173;50.430;18.926;2022-07-06T03:02:38;15.40;;;11.48;;
39486;SDS011;25173;50.430;18.926;2022-07-06T03:05:40;16.52;;;12.38;;
39486;SDS011;25173;50.430;18.926;2022-07-06T03:08:41;20.05;;;15.27;;
39486;SDS011;25173;50.430;18.926;2022-07-06T03:11:42;20.90;;;14.27;;
39486;SDS011;25173;50.430;18.926;2022-07-06T03:14:43;28.45;;;15.25;;
39486;SDS011;25173;50.430;18.926;2022-07-06T03:17:44;21.40;;;15.07;;
39486;SDS011;25173;50.430;18.926;2022-07-06T03:20:46;23.30;;;14.52;;
39486;SDS011;25173;50.430;18.926;2022-07-06T03:23:49;21.23;;;15.15;;
39486;SDS011;25173;50.430;18.926;2022-07-06T03:26:50;16.35;;;13.43;;
39486;SDS011;25173;50.430;18.926;2022-07-06T03:29:50;24.52;;;13.98;;
39486;SDS011;25173;50.430;18.926;2022-07-06T03:32:52;17.67;;;13.13;;
39486;SDS011;25173;50.430;18.926;2022-07-06T03:35:54;29.60;;;14.82;;
39486;SDS011;25173;50.430;18.926;2022-07-06T03:38:55;48.95;;;15.65;;
39486;SDS011;25173;50.430;18.926;2022-07-06T03:41:57;22.52;;;13.45;;
39486;SDS011;25173;50.430;18.926;2022-07-06T03:44:58;50.08;;;15.25;;
39486;SDS011;25173;50.430;18.926;2022-07-06T03:48:01;69.72;;;15.75;;
39486;SDS011;25173;50.430;18.926;2022-07-06T03:51:03;134.55;;;16.52;;
39486;SDS011;25173;50.430;18.926;2022-07-06T03:54:04;36.40;;;15.07;;
39486;SDS011;25173;50.430;18.926;2022-07-06T03:57:05;25.45;;;14.98;;
39486;SDS011;25173;50.430;18.926;2022-07-06T04:00:07;39.35;;;13.68;;
39486;SDS011;25173;50.430;18.926;2022-07-06T04:03:14;33.30;;;13.93;;
39486;SDS011;25173;50.430;18.926;2022-07-06T04:06:21;22.75;;;13.40;;
39486;SDS011;25173;50.430;18.926;2022-07-06T04:09:21;19.42;;;13.75;;
39486;SDS011;25173;50.430;18.926;2022-07-06T04:12:23;14.90;;;13.10;;
39486;SDS011;25173;50.430;18.926;2022-07-06T04:15:24;20.27;;;15.70;;
39486;SDS011;25173;50.430;18.926;2022-07-06T04:18:25;19.83;;;14.88;;
39486;SDS011;25173;50.430;18.926;2022-07-06T04:21:28;22.00;;;17.75;;
39486;SDS011;25173;50.430;18.926;2022-07-06T04:24:29;29.48;;;19.25;;
39486;SDS011;25173;50.430;18.926;2022-07-06T04:27:30;26.83;;;19.60;;
39486;SDS011;25173;50.430;18.926;2022-07-06T04:30:31;25.98;;;18.63;;
39486;SDS011;25173;50.430;18.926;2022-07-06T04:33:33;26.15;;;18.13;;
39486;SDS011;25173;50.430;18.926;2022-07-06T04:36:34;21.85;;;16.05;;
39486;SDS011;25173;50.430;18.926;2022-07-06T04:39:35;19.25;;;15.55;;
39486;SDS011;25173;50.430;18.926;2022-07-06T04:42:36;16.17;;;13.18;;
39486;SDS011;25173;50.430;18.926;2022-07-06T04:45:38;15.07;;;13.45;;
39486;SDS011;25173;50.430;18.926;2022-07-06T04:48:39;18.45;;;12.60;;
39486;SDS011;25173;50.430;18.926;2022-07-06T04:51:43;15.35;;;12.13;;
39486;SDS011;25173;50.430;18.926;2022-07-06T04:54:44;14.80;;;12.45;;
39486;SDS011;25173;50.430;18.926;2022-07-06T04:57:45;16.00;;;12.85;;
39486;SDS011;25173;50.430;18.926;2022-07-06T05:00:48;16.08;;;13.38;;
39486;SDS011;25173;50.430;18.926;2022-07-06T05:03:48;15.02;;;13.52;;
39486;SDS011;25173;50.430;18.926;2022-07-06T05:06:51;21.45;;;15.70;;
39486;SDS011;25173;50.430;18.926;2022-07-06T05:09:52;18.80;;;13.90;;
39486;SDS011;25173;50.430;18.926;2022-07-06T05:12:54;25.95;;;15.88;;
39486;SDS011;25173;50.430;18.926;2022-07-06T05:15:56;18.38;;;14.25;;
39486;SDS011;25173;50.430;18.926;2022-07-06T05:18:57;15.43;;;13.77;;
39486;SDS011;25173;50.430;18.926;2022-07-06T05:21:58;19.88;;;13.50;;
39486;SDS011;25173;50.430;18.926;2022-07-06T05:24:59;14.95;;;12.27;;
39486;SDS011;25173;50.430;18.926;2022-07-06T05:28:00;21.48;;;15.85;;
39486;SDS011;25173;50.430;18.926;2022-07-06T05:31:02;15.52;;;13.55;;
39486;SDS011;25173;50.430;18.926;2022-07-06T05:34:03;16.02;;;13.77;;
39486;SDS011;25173;50.430;18.926;2022-07-06T05:37:04;17.35;;;13.35;;
39486;SDS011;25173;50.430;18.926;2022-07-06T05:40:04;14.02;;;12.55;;
39486;SDS011;25173;50.430;18.926;2022-07-06T05:43:06;16.65;;;12.77;;
39486;SDS011;25173;50.430;18.926;2022-07-06T05:46:08;19.65;;;14.63;;
39486;SDS011;25173;50.430;18.926;2022-07-06T05:49:10;13.65;;;11.73;;
39486;SDS011;25173;50.430;18.926;2022-07-06T05:52:30;11.98;;;10.77;;
39486;SDS011;25173;50.430;18.926;2022-07-06T05:55:31;13.65;;;11.02;;
39486;SDS011;25173;50.430;18.926;2022-07-06T05:58:34;14.18;;;10.98;;
39486;SDS011;25173;50.430;18.926;2022-07-06T06:01:35;14.80;;;11.30;;
39486;SDS011;25173;50.430;18.926;2022-07-06T06:04:47;14.25;;;11.05;;
39486;SDS011;25173;50.430;18.926;2022-07-06T06:07:48;15.15;;;10.40;;
39486;SDS011;25173;50.430;18.926;2022-07-06T06:10:53;12.73;;;10.27;;
39486;SDS011;25173;50.430;18.926;2022-07-06T06:13:56;16.85;;;12.13;;
39486;SDS011;25173;50.430;18.926;2022-07-06T06:16:57;14.57;;;11.55;;
39486;SDS011;25173;50.430;18.926;2022-07-06T06:19:58;17.10;;;11.35;;
39486;SDS011;25173;50.430;18.926;2022-07-06T06:22:59;16.70;;;10.82;;
39486;SDS011;25173;50.430;18.926;2022-07-06T06:26:00;11.23;;;9.15;;
39486;SDS011;25173;50.430;18.926;2022-07-06T06:29:01;14.23;;;9.85;;
39486;SDS011;25173;50.430;18.926;2022-07-06T06:32:02;11.95;;;9.15;;
39486;SDS011;25173;50.430;18.926;2022-07-06T06:35:03;14.85;;;12.05;;
39486;SDS011;25173;50.430;18.926;2022-07-06T06:38:04;18.20;;;14.05;;
39486;SDS011;25173;50.430;18.926;2022-07-06T06:41:05;16.67;;;14.63;;
39486;SDS011;25173;50.430;18.926;2022-07-06T06:44:07;17.42;;;14.70;;
39486;SDS011;25173;50.430;18.926;2022-07-06T06:47:13;19.48;;;12.52;;
39486;SDS011;25173;50.430;18.926;2022-07-06T06:50:13;12.48;;;11.27;;
39486;SDS011;25173;50.430;18.926;2022-07-06T06:53:14;16.02;;;10.85;;
39486;SDS011;25173;50.430;18.926;2022-07-06T06:56:15;17.30;;;9.63;;
39486;SDS011;25173;50.430;18.926;2022-07-06T06:59:15;12.20;;;10.10;;
39486;SDS011;25173;50.430;18.926;2022-07-06T07:02:16;11.57;;;10.35;;
39486;SDS011;25173;50.430;18.926;2022-07-06T07:05:17;13.73;;;10.50;;
39486;SDS011;25173;50.430;18.926;2022-07-06T07:08:18;14.05;;;11.20;;
39486;SDS011;25173;50.430;18.926;2022-07-06T07:11:19;13.50;;;9.60;;
39486;SDS011;25173;50.430;18.926;2022-07-06T07:14:20;14.90;;;9.07;;
39486;SDS011;25173;50.430;18.926;2022-07-06T07:17:21;14.18;;;9.80;;
39486;SDS011;25173;50.430;18.926;2022-07-06T07:20:21;15.45;;;12.43;;
39486;SDS011;25173;50.430;18.926;2022-07-06T07:23:22;16.73;;;13.38;;
39486;SDS011;25173;50.430;18.926;2022-07-06T07:26:23;15.52;;;13.63;;
39486;SDS011;25173;50.430;18.926;2022-07-06T07:29:24;20.90;;;15.05;;
39486;SDS011;25173;50.430;18.926;2022-07-06T07:32:25;16.35;;;14.73;;
39486;SDS011;25173;50.430;18.926;2022-07-06T07:35:26;15.15;;;12.88;;
39486;SDS011;25173;50.430;18.926;2022-07-06T07:38:27;14.30;;;11.50;;
39486;SDS011;25173;50.430;18.926;2022-07-06T07:41:28;7.10;;;6.38;;
39486;SDS011;25173;50.430;18.926;2022-07-06T07:44:28;7.78;;;6.55;;
39486;SDS011;25173;50.430;18.926;2022-07-06T07:47:29;9.80;;;7.30;;
39486;SDS011;25173;50.430;18.926;2022-07-06T07:50:30;11.80;;;6.75;;
39486;SDS011;25173;50.430;18.926;2022-07-06T07:53:30;10.88;;;6.45;;
39486;SDS011;25173;50.430;18.926;2022-07-06T07:56:31;8.15;;;4.78;;
39486;SDS011;25173;50.430;18.926;2022-07-06T07:59:32;5.95;;;3.40;;
39486;SDS011;25173;50.430;18.926;2022-07-06T08:02:33;6.85;;;3.03;;
39486;SDS011;25173;50.430;18.926;2022-07-06T08:05:34;2.75;;;2.50;;
39486;SDS011;25173;50.430;18.926;2022-07-06T08:08:35;6.65;;;2.97;;
39486;SDS011;25173;50.430;18.926;2022-07-06T08:11:35;2.58;;;2.38;;
39486;SDS011;25173;50.430;18.926;2022-07-06T08:14:36;7.57;;;2.42;;
39486;SDS011;25173;50.430;18.926;2022-07-06T08:17:37;5.50;;;2.65;;
39486;SDS011;25173;50.430;18.926;2022-07-06T08:20:40;2.15;;;1.92;;
39486;SDS011;25173;50.430;18.926;2022-07-06T08:23:40;4.85;;;2.20;;
39486;SDS011;25173;50.430;18.926;2022-07-06T08:26:41;6.97;;;2.47;;
39486;SDS011;25173;50.430;18.926;2022-07-06T08:29:42;5.22;;;2.25;;
39486;SDS011;25173;50.430;18.926;2022-07-06T08:32:43;3.15;;;2.28;;
39486;SDS011;25173;50.430;18.926;2022-07-06T08:35:44;8.25;;;2.75;;
39486;SDS011;25173;50.430;18.926;2022-07-06T08:38:45;4.53;;;2.38;;
39486;SDS011;25173;50.430;18.926;2022-07-06T08:41:47;4.07;;;2.45;;
39486;SDS011;25173;50.430;18.926;2022-07-06T08:44:48;5.65;;;2.20;;
39486;SDS011;25173;50.430;18.926;2022-07-06T08:47:53;5.00;;;2.60;;
39486;SDS011;25173;50.430;18.926;2022-07-06T08:50:54;4.47;;;2.72;;
39486;SDS011;25173;50.430;18.926;2022-07-06T08:53:55;4.10;;;2.35;;
39486;SDS011;25173;50.430;18.926;2022-07-06T08:56:57;5.10;;;2.20;;
39486;SDS011;25173;50.430;18.926;2022-07-06T08:59:59;2.95;;;2.30;;
39486;SDS011;25173;50.430;18.926;2022-07-06T09:03:00;5.38;;;2.53;;
39486;SDS011;25173;50.430;18.926;2022-07-06T09:06:01;6.13;;;2.50;;
39486;SDS011;25173;50.430;18.926;2022-07-06T09:09:05;2.70;;;2.38;;
39486;SDS011;25173;50.430;18.926;2022-07-06T09:12:10;7.43;;;2.15;;
39486;SDS011;25173;50.430;18.926;2022-07-06T09:15:12;7.85;;;4.00;;
39486;SDS011;25173;50.430;18.926;2022-07-06T09:18:13;5.35;;;2.90;;
39486;SDS011;25173;50.430;18.926;2022-07-06T09:21:21;7.40;;;2.55;;
39486;SDS011;25173;50.430;18.926;2022-07-06T09:24:24;2.92;;;2.63;;
39486;SDS011;25173;50.430;18.926;2022-07-06T09:27:26;4.70;;;2.72;;
39486;SDS011;25173;50.430;18.926;2022-07-06T09:30:27;6.75;;;2.58;;
39486;SDS011;25173;50.430;18.926;2022-07-06T09:33:29;4.95;;;2.33;;
39486;SDS011;25173;50.430;18.926;2022-07-06T09:36:48;4.28;;;2.33;;
39486;SDS011;25173;50.430;18.926;2022-07-06T09:39:50;2.22;;;2.03;;
39486;SDS011;25173;50.430;18.926;2022-07-06T09:42:51;9.10;;;1.67;;
39486;SDS011;25173;50.430;18.926;2022-07-06T09:45:54;3.47;;;2.08;;
39486;SDS011;25173;50.430;18.926;2022-07-06T09:48:56;2.03;;;1.83;;
39486;SDS011;25173;50.430;18.926;2022-07-06T09:52:00;2.25;;;1.70;;
39486;SDS011;25173;50.430;18.926;2022-07-06T09:55:12;3.08;;;2.00;;
39486;SDS011;25173;50.430;18.926;2022-07-06T09:58:16;4.30;;;2.05;;
39486;SDS011;25173;50.430;18.926;2022-07-06T10:01:26;5.25;;;2.10;;
39486;SDS011;25173;50.430;18.926;2022-07-06T10:04:28;2.08;;;1.88;;
39486;SDS011;25173;50.430;18.926;2022-07-06T10:07:29;3.08;;;2.05;;
39486;SDS011;25173;50.430;18.926;2022-07-06T10:10:30;1.85;;;1.75;;
39486;SDS011;25173;50.430;18.926;2022-07-06T10:13:31;4.10;;;2.42;;
39486;SDS011;25173;50.430;18.926;2022-07-06T10:16:34;3.67;;;2.60;;
39486;SDS011;25173;50.430;18.926;2022-07-06T10:19:37;4.85;;;2.30;;
39486;SDS011;25173;50.430;18.926;2022-07-06T10:22:39;3.58;;;2.25;;
39486;SDS011;25173;50.430;18.926;2022-07-06T10:25:40;3.90;;;2.58;;
39486;SDS011;25173;50.430;18.926;2022-07-06T10:28:42;4.32;;;2.38;;
39486;SDS011;25173;50.430;18.926;2022-07-06T10:31:44;4.32;;;2.42;;
39486;SDS011;25173;50.430;18.926;2022-07-06T10:34:46;2.42;;;2.22;;
39486;SDS011;25173;50.430;18.926;2022-07-06T10:38:03;8.50;;;2.47;;
39486;SDS011;25173;50.430;18.926;2022-07-06T10:41:08;6.32;;;2.30;;
39486;SDS011;25173;50.430;18.926;2022-07-06T10:44:16;6.93;;;2.47;;
39486;SDS011;25173;50.430;18.926;2022-07-06T10:47:18;2.72;;;1.60;;
39486;SDS011;25173;50.430;18.926;2022-07-06T10:50:33;3.97;;;1.40;;
39486;SDS011;25173;50.430;18.926;2022-07-06T10:53:36;4.95;;;2.03;;
39486;SDS011;25173;50.430;18.926;2022-07-06T10:56:39;2.15;;;1.60;;
39486;SDS011;25173;50.430;18.926;2022-07-06T10:59:59;3.92;;;1.92;;
39486;SDS011;25173;50.430;18.926;2022-07-06T11:06:33;7.25;;;1.98;;
39486;SDS011;25173;50.430;18.926;2022-07-06T11:09:38;4.40;;;2.03;;
39486;SDS011;25173;50.430;18.926;2022-07-06T11:12:45;3.17;;;1.77;;
39486;SDS011;25173;50.430;18.926;2022-07-06T11:15:46;2.05;;;1.70;;
39486;SDS011;25173;50.430;18.926;2022-07-06T11:18:48;2.65;;;1.63;;
39486;SDS011;25173;50.430;18.926;2022-07-06T11:22:05;11.30;;;2.55;;
39486;SDS011;25173;50.430;18.926;2022-07-06T11:25:07;3.72;;;1.55;;
39486;SDS011;25173;50.430;18.926;2022-07-06T11:28:08;2.45;;;1.83;;
39486;SDS011;25173;50.430;18.926;2022-07-06T11:31:15;4.38;;;1.67;;
39486;SDS011;25173;50.430;18.926;2022-07-06T11:34:23;4.13;;;1.85;;
39486;SDS011;25173;50.430;18.926;2022-07-06T11:37:29;5.47;;;2.20;;
39486;SDS011;25173;50.430;18.926;2022-07-06T11:40:29;4.75;;;1.90;;
39486;SDS011;25173;50.430;18.926;2022-07-06T11:43:30;4.93;;;2.08;;
39486;SDS011;25173;50.430;18.926;2022-07-06T11:46:31;7.00;;;2.33;;
39486;SDS011;25173;50.430;18.926;2022-07-06T11:49:36;4.35;;;1.90;;
39486;SDS011;25173;50.430;18.926;2022-07-06T11:52:38;4.93;;;1.75;;
39486;SDS011;25173;50.430;18.926;2022-07-06T11:55:39;8.63;;;1.60;;
39486;SDS011;25173;50.430;18.926;2022-07-06T11:58:41;2.28;;;1.60;;
39486;SDS011;25173;50.430;18.926;2022-07-06T12:01:44;2.20;;;1.70;;
39486;SDS011;25173;50.430;18.926;2022-07-06T12:04:45;1.80;;;1.70;;
39486;SDS011;25173;50.430;18.926;2022-07-06T12:07:46;1.85;;;1.67;;
39486;SDS011;25173;50.430;18.926;2022-07-06T12:10:47;2.95;;;1.42;;
39486;SDS011;25173;50.430;18.926;2022-07-06T12:13:48;2.40;;;1.58;;
39486;SDS011;25173;50.430;18.926;2022-07-06T12:16:50;4.38;;;1.60;;
39486;SDS011;25173;50.430;18.926;2022-07-06T12:19:54;3.92;;;1.77;;
39486;SDS011;25173;50.430;18.926;2022-07-06T12:23:04;6.13;;;1.50;;
39486;SDS011;25173;50.430;18.926;2022-07-06T12:26:06;2.78;;;1.20;;
39486;SDS011;25173;50.430;18.926;2022-07-06T12:29:09;2.05;;;1.52;;
39486;SDS011;25173;50.430;18.926;2022-07-06T12:32:14;8.20;;;2.00;;
39486;SDS011;25173;50.430;18.926;2022-07-06T12:35:16;4.10;;;1.27;;
39486;SDS011;25173;50.430;18.926;2022-07-06T12:38:26;4.03;;;1.65;;
39486;SDS011;25173;50.430;18.926;2022-07-06T12:41:31;3.05;;;1.92;;
39486;SDS011;25173;50.430;18.926;2022-07-06T12:44:35;4.40;;;2.10;;
39486;SDS011;25173;50.430;18.926;2022-07-06T12:47:59;3.97;;;1.58;;
39486;SDS011;25173;50.430;18.926;2022-07-06T12:51:02;9.50;;;1.50;;
39486;SDS011;25173;50.430;18.926;2022-07-06T12:54:12;1.48;;;1.30;;
39486;SDS011;25173;50.430;18.926;2022-07-06T12:57:24;3.20;;;1.35;;
39486;SDS011;25173;50.430;18.926;2022-07-06T13:00:28;5.40;;;1.10;;
39486;SDS011;25173;50.430;18.926;2022-07-06T13:03:45;5.30;;;1.45;;
39486;SDS011;25173;50.430;18.926;2022-07-06T13:06:46;5.65;;;1.88;;
39486;SDS011;25173;50.430;18.926;2022-07-06T13:09:48;3.38;;;1.38;;
39486;SDS011;25173;50.430;18.926;2022-07-06T13:12:50;4.03;;;1.20;;
39486;SDS011;25173;50.430;18.926;2022-07-06T13:15:51;4.10;;;1.20;;
39486;SDS011;25173;50.430;18.926;2022-07-06T13:18:52;3.65;;;1.40;;
39486;SDS011;25173;50.430;18.926;2022-07-06T13:21:53;2.35;;;0.90;;
39486;SDS011;25173;50.430;18.926;2022-07-06T13:24:53;7.85;;;1.35;;
39486;SDS011;25173;50.430;18.926;2022-07-06T13:27:54;2.17;;;1.13;;
39486;SDS011;25173;50.430;18.926;2022-07-06T13:30:55;1.65;;;1.05;;
39486;SDS011;25173;50.430;18.926;2022-07-06T13:33:56;7.15;;;1.30;;
39486;SDS011;25173;50.430;18.926;2022-07-06T13:36:57;3.88;;;1.02;;
39486;SDS011;25173;50.430;18.926;2022-07-06T13:39:58;2.00;;;0.95;;
39486;SDS011;25173;50.430;18.926;2022-07-06T13:42:58;1.73;;;0.93;;
39486;SDS011;25173;50.430;18.926;2022-07-06T13:45:59;7.50;;;1.10;;
39486;SDS011;25173;50.430;18.926;2022-07-06T13:49:00;6.90;;;1.42;;
39486;SDS011;25173;50.430;18.926;2022-07-06T13:52:01;11.50;;;1.10;;
39486;SDS011;25173;50.430;18.926;2022-07-06T13:55:05;1.45;;;1.10;;
39486;SDS011;25173;50.430;18.926;2022-07-06T13:58:06;1.08;;;0.98;;
39486;SDS011;25173;50.430;18.926;2022-07-06T14:01:08;3.90;;;1.33;;
39486;SDS011;25173;50.430;18.926;2022-07-06T14:04:09;0.70;;;0.60;;
39486;SDS011;25173;50.430;18.926;2022-07-06T14:07:09;1.25;;;0.90;;
39486;SDS011;25173;50.430;18.926;2022-07-06T14:10:10;4.45;;;1.00;;
39486;SDS011;25173;50.430;18.926;2022-07-06T14:13:11;4.32;;;1.05;;
39486;SDS011;25173;50.430;18.926;2022-07-06T14:16:11;2.08;;;0.90;;
39486;SDS011;25173;50.430;18.926;2022-07-06T14:19:12;3.17;;;1.00;;
39486;SDS011;25173;50.430;18.926;2022-07-06T14:22:13;1.80;;;0.80;;
39486;SDS011;25173;50.430;18.926;2022-07-06T14:25:14;1.17;;;0.95;;
39486;SDS011;25173;50.430;18.926;2022-07-06T14:28:14;2.05;;;1.40;;
39486;SDS011;25173;50.430;18.926;2022-07-06T14:31:17;1.65;;;1.08;;
39486;SDS011;25173;50.430;18.926;2022-07-06T14:34:17;28.25;;;1.35;;
39486;SDS011;25173;50.430;18.926;2022-07-06T14:37:18;4.43;;;1.23;;
39486;SDS011;25173;50.430;18.926;2022-07-06T14:40:19;8.85;;;1.40;;
39486;SDS011;25173;50.430;18.926;2022-07-06T14:43:19;4.55;;;1.00;;
39486;SDS011;25173;50.430;18.926;2022-07-06T14:46:20;11.45;;;1.45;;
39486;SDS011;25173;50.430;18.926;2022-07-06T14:49:21;2.30;;;1.10;;
39486;SDS011;25173;50.430;18.926;2022-07-06T14:52:22;2.88;;;1.20;;
39486;SDS011;25173;50.430;18.926;2022-07-06T14:55:22;10.52;;;1.40;;
39486;SDS011;25173;50.430;18.926;2022-07-06T14:58:23;4.90;;;1.13;;
39486;SDS011;25173;50.430;18.926;2022-07-06T15:01:24;2.45;;;1.00;;
39486;SDS011;25173;50.430;18.926;2022-07-06T15:04:25;6.63;;;1.23;;
39486;SDS011;25173;50.430;18.926;2022-07-06T15:07:26;2.72;;;1.40;;
39486;SDS011;25173;50.430;18.926;2022-07-06T15:10:26;3.67;;;1.30;;
39486;SDS011;25173;50.430;18.926;2022-07-06T15:13:27;7.55;;;2.38;;
39486;SDS011;25173;50.430;18.926;2022-07-06T15:16:28;3.95;;;1.20;;
39486;SDS011;25173;50.430;18.926;2022-07-06T15:19:28;5.68;;;1.20;;
39486;SDS011;25173;50.430;18.926;2022-07-06T15:22:29;4.43;;;1.13;;
39486;SDS011;25173;50.430;18.926;2022-07-06T15:25:30;3.28;;;1.48;;
39486;SDS011;25173;50.430;18.926;2022-07-06T15:28:30;11.80;;;1.77;;
39486;SDS011;25173;50.430;18.926;2022-07-06T15:31:31;1.50;;;1.30;;
39486;SDS011;25173;50.430;18.926;2022-07-06T15:34:32;1.33;;;0.90;;
39486;SDS011;25173;50.430;18.926;2022-07-06T15:37:33;5.38;;;1.58;;
39486;SDS011;25173;50.430;18.926;2022-07-06T15:40:35;11.23;;;1.50;;
39486;SDS011;25173;50.430;18.926;2022-07-06T15:43:40;1.30;;;1.02;;
39486;SDS011;25173;50.430;18.926;2022-07-06T15:46:41;1.77;;;1.35;;
39486;SDS011;25173;50.430;18.926;2022-07-06T15:49:41;2.25;;;1.00;;
39486;SDS011;25173;50.430;18.926;2022-07-06T15:52:42;2.97;;;1.10;;
39486;SDS011;25173;50.430;18.926;2022-07-06T15:55:43;2.03;;;1.00;;
39486;SDS011;25173;50.430;18.926;2022-07-06T15:58:44;1.65;;;0.90;;
39486;SDS011;25173;50.430;18.926;2022-07-06T16:01:45;1.38;;;0.85;;
39486;SDS011;25173;50.430;18.926;2022-07-06T16:04:46;3.13;;;1.00;;
39486;SDS011;25173;50.430;18.926;2022-07-06T16:07:47;3.80;;;1.13;;
39486;SDS011;25173;50.430;18.926;2022-07-06T16:10:47;4.60;;;1.20;;
39486;SDS011;25173;50.430;18.926;2022-07-06T16:13:48;0.80;;;0.80;;
39486;SDS011;25173;50.430;18.926;2022-07-06T16:16:49;1.88;;;0.90;;
39486;SDS011;25173;50.430;18.926;2022-07-06T16:19:50;2.35;;;1.25;;
39486;SDS011;25173;50.430;18.926;2022-07-06T16:22:51;1.20;;;1.05;;
39486;SDS011;25173;50.430;18.926;2022-07-06T16:25:53;0.93;;;0.85;;
39486;SDS011;25173;50.430;18.926;2022-07-06T16:28:54;1.13;;;1.02;;
39486;SDS011;25173;50.430;18.926;2022-07-06T16:31:54;1.10;;;0.93;;
39486;SDS011;25173;50.430;18.926;2022-07-06T16:34:55;0.90;;;0.90;;
39486;SDS011;25173;50.430;18.926;2022-07-06T16:37:58;1.00;;;0.95;;
39486;SDS011;25173;50.430;18.926;2022-07-06T16:40:59;2.15;;;1.20;;
39486;SDS011;25173;50.430;18.926;2022-07-06T16:44:00;1.25;;;0.90;;
39486;SDS011;25173;50.430;18.926;2022-07-06T16:47:00;1.45;;;1.25;;
39486;SDS011;25173;50.430;18.926;2022-07-06T16:50:01;3.28;;;1.30;;
39486;SDS011;25173;50.430;18.926;2022-07-06T16:53:03;1.67;;;1.10;;
39486;SDS011;25173;50.430;18.926;2022-07-06T16:56:07;2.17;;;0.90;;
39486;SDS011;25173;50.430;18.926;2022-07-06T16:59:08;3.13;;;1.77;;
39486;SDS011;25173;50.430;18.926;2022-07-06T17:02:09;4.13;;;1.20;;
39486;SDS011;25173;50.430;18.926;2022-07-06T17:05:10;5.57;;;1.52;;
39486;SDS011;25173;50.430;18.926;2022-07-06T17:08:10;2.60;;;1.17;;
39486;SDS011;25173;50.430;18.926;2022-07-06T17:11:11;3.40;;;1.48;;
39486;SDS011;25173;50.430;18.926;2022-07-06T17:14:12;1.73;;;1.35;;
39486;SDS011;25173;50.430;18.926;2022-07-06T17:17:12;2.75;;;1.50;;
39486;SDS011;25173;50.430;18.926;2022-07-06T17:20:13;3.60;;;1.50;;
39486;SDS011;25173;50.430;18.926;2022-07-06T17:23:14;2.50;;;1.40;;
39486;SDS011;25173;50.430;18.926;2022-07-06T17:26:15;4.93;;;1.73;;
39486;SDS011;25173;50.430;18.926;2022-07-06T17:29:16;4.70;;;1.73;;
39486;SDS011;25173;50.430;18.926;2022-07-06T17:32:16;2.53;;;1.20;;
39486;SDS011;25173;50.430;18.926;2022-07-06T17:35:17;4.60;;;1.92;;
39486;SDS011;25173;50.430;18.926;2022-07-06T17:38:18;5.10;;;1.45;;
39486;SDS011;25173;50.430;18.926;2022-07-06T17:41:19;6.18;;;1.35;;
39486;SDS011;25173;50.430;18.926;2022-07-06T17:44:20;3.75;;;1.83;;
39486;SDS011;25173;50.430;18.926;2022-07-06T17:47:20;3.90;;;1.33;;
39486;SDS011;25173;50.430;18.926;2022-07-06T17:50:21;2.40;;;1.00;;
39486;SDS011;25173;50.430;18.926;2022-07-06T17:53:22;8.60;;;1.40;;
39486;SDS011;25173;50.430;18.926;2022-07-06T17:56:22;4.60;;;1.50;;
39486;SDS011;25173;50.430;18.926;2022-07-06T17:59:23;9.27;;;1.70;;